createdAt,value
2023-05-14T00:03:15.509Z,5.15
2023-05-14T00:08:19.660Z,5.25
2023-05-14T00:13:22.259Z,5.22
2023-05-14T00:18:24.947Z,5.07
2023-05-14T00:23:29.052Z,4.85
2023-05-14T00:28:31.683Z,5.13
2023-05-14T00:33:35.074Z,4.80
2023-05-14T00:38:39.013Z,4.70
2023-05-14T00:43:41.618Z,4.93
2023-05-14T00:48:45.441Z,4.85
2023-05-14T00:53:49.610Z,4.75
2023-05-14T00:58:52.465Z,4.88
2023-05-14T01:03:57.694Z,5.00
2023-05-14T01:09:10.093Z,5.22
2023-05-14T01:14:18.748Z,4.90
2023-05-14T01:19:38.988Z,4.97
2023-05-14T01:24:42.999Z,5.03
2023-05-14T01:29:49.556Z,4.88
2023-05-14T01:34:53.199Z,4.85
2023-05-14T01:39:57.647Z,5.07
2023-05-14T01:45:00.791Z,5.15
2023-05-14T01:50:03.598Z,5.10
2023-05-14T01:55:08.724Z,4.82
2023-05-14T02:00:12.286Z,4.80
2023-05-14T02:05:17.834Z,5.30
2023-05-14T02:10:22.087Z,5.10
2023-05-14T02:15:25.727Z,4.85
2023-05-14T02:20:28.347Z,4.93
2023-05-14T02:25:32.330Z,4.90
2023-05-14T02:30:35.042Z,5.32
2023-05-14T02:35:37.659Z,4.70
2023-05-14T02:40:42.458Z,5.10
2023-05-14T02:45:45.106Z,5.10
2023-05-14T02:50:48.359Z,4.93
2023-05-14T02:55:52.444Z,4.97
2023-05-14T03:00:55.179Z,5.90
2023-05-14T03:05:58.367Z,5.43
2023-05-14T03:11:02.468Z,5.25
2023-05-14T03:16:05.824Z,4.90
2023-05-14T03:21:09.322Z,5.20
2023-05-14T03:26:13.309Z,5.13
2023-05-14T03:31:16.014Z,4.97
2023-05-14T03:36:18.710Z,4.85
2023-05-14T03:41:24.177Z,5.40
2023-05-14T03:46:26.854Z,5.00
2023-05-14T03:51:29.533Z,4.82
2023-05-14T03:56:34.321Z,5.25
2023-05-14T04:01:36.936Z,5.38
2023-05-14T04:06:40.297Z,5.20
2023-05-14T04:11:47.404Z,5.00
2023-05-14T04:16:50.322Z,5.25
2023-05-14T04:21:52.978Z,5.35
2023-05-14T04:26:56.992Z,5.18
2023-05-14T04:31:59.755Z,4.95
2023-05-14T04:37:03.746Z,5.32
2023-05-14T04:42:08.761Z,4.97
2023-05-14T04:47:11.353Z,5.50
2023-05-14T04:52:14.024Z,4.95
2023-05-14T04:57:18.015Z,4.93
2023-05-14T05:02:20.829Z,4.63
2023-05-14T05:07:23.650Z,4.57
2023-05-14T05:12:29.956Z,4.50
2023-05-14T05:17:32.721Z,4.65
2023-05-14T05:22:35.387Z,4.32
2023-05-14T05:27:48.892Z,7.93
2023-05-14T05:32:51.649Z,20.40
2023-05-14T05:37:54.502Z,24.98
2023-05-14T05:42:58.466Z,26.02
2023-05-14T05:48:01.177Z,25.80
2023-05-14T05:53:06.545Z,21.42
2023-05-14T05:58:10.560Z,18.95
2023-05-14T06:03:14.540Z,18.80
2023-05-14T06:08:17.318Z,17.52
2023-05-14T06:13:21.282Z,16.63
2023-05-14T06:18:23.870Z,15.60
2023-05-14T06:23:26.824Z,15.23
2023-05-14T06:28:30.804Z,14.15
2023-05-14T06:33:33.442Z,13.88
2023-05-14T06:38:36.107Z,13.85
2023-05-14T06:43:40.070Z,13.23
2023-05-14T06:48:42.770Z,12.32
2023-05-14T06:53:45.477Z,12.20
2023-05-14T06:58:49.463Z,11.95
2023-05-14T07:03:52.142Z,11.80
2023-05-14T07:08:55.172Z,11.57
2023-05-14T07:13:59.463Z,10.80
2023-05-14T07:19:02.156Z,11.43
2023-05-14T07:24:05.330Z,11.15
2023-05-14T07:29:09.361Z,10.00
2023-05-14T07:34:12.800Z,10.32
2023-05-14T07:39:15.508Z,9.98
2023-05-14T07:45:27.682Z,9.18
2023-05-14T07:50:32.069Z,9.45
2023-05-14T07:55:34.765Z,9.15
2023-05-14T08:00:37.392Z,8.90
2023-05-14T08:05:51.787Z,9.00
2023-05-14T08:10:54.507Z,7.90
2023-05-14T08:15:57.179Z,8.38
2023-05-14T08:21:03.205Z,8.63
2023-05-14T08:26:06.622Z,8.23
2023-05-14T08:31:09.505Z,8.00
2023-05-14T08:36:14.731Z,7.90
2023-05-14T08:41:17.888Z,7.55
2023-05-14T08:46:24.399Z,8.00
2023-05-14T08:51:28.793Z,7.68
2023-05-14T08:56:33.749Z,7.60
2023-05-14T09:01:37.690Z,7.63
2023-05-14T09:06:43.190Z,7.35
2023-05-14T09:11:47.361Z,7.60
2023-05-14T09:16:51.641Z,7.45
2023-05-14T09:22:23.479Z,6.85
2023-05-14T09:27:27.722Z,7.47
2023-05-14T09:32:50.236Z,8.52
2023-05-14T09:37:55.449Z,8.13
2023-05-14T09:42:58.185Z,8.40
2023-05-14T09:48:01.308Z,9.00
2023-05-14T09:58:46.992Z,9.25
2023-05-14T10:03:50.052Z,9.30
2023-05-14T10:09:07.046Z,9.23
2023-05-14T10:14:55.162Z,9.15
2023-05-14T10:19:59.909Z,8.40
2023-05-14T10:38:25.131Z,9.10
2023-05-14T10:43:47.878Z,8.43
2023-05-14T10:48:50.750Z,7.80
2023-05-14T10:53:54.737Z,8.18
2023-05-14T10:58:59.496Z,7.60
2023-05-14T11:11:37.069Z,7.57
2023-05-14T11:16:58.411Z,7.18
2023-05-14T11:22:48.429Z,7.95
2023-05-14T11:27:55.862Z,7.35
2023-05-14T11:33:42.863Z,7.03
2023-05-14T11:38:48.747Z,6.60
2023-05-14T11:44:09.209Z,7.05
2023-05-14T11:49:11.893Z,6.50
2023-05-14T11:54:15.648Z,6.95
2023-05-14T11:59:20.000Z,6.90
2023-05-14T12:04:23.222Z,7.03
2023-05-14T12:09:25.887Z,6.72
2023-05-14T12:14:29.842Z,5.75
2023-05-14T12:20:29.476Z,6.70
2023-05-14T12:26:01.788Z,6.18
2023-05-14T12:31:29.760Z,6.20
2023-05-14T12:38:13.258Z,6.43
2023-05-14T12:55:11.023Z,6.07
2023-05-14T13:00:14.937Z,5.72
2023-05-14T13:05:17.766Z,5.82
2023-05-14T13:10:22.024Z,5.35
2023-05-14T13:15:25.955Z,5.05
2023-05-14T13:20:30.951Z,5.30
2023-05-14T13:25:35.127Z,5.80
2023-05-14T13:30:37.846Z,5.38
2023-05-14T13:35:40.590Z,5.43
2023-05-14T13:40:44.553Z,5.40
2023-05-14T13:45:47.189Z,5.15
2023-05-14T13:50:50.448Z,5.78
2023-05-14T13:55:56.521Z,5.20
2023-05-14T14:00:59.371Z,5.40
2023-05-14T14:06:01.957Z,5.13
2023-05-14T14:11:06.298Z,5.15
2023-05-14T14:16:09.041Z,5.30
2023-05-14T14:21:11.897Z,4.78
2023-05-14T14:26:19.023Z,4.68
2023-05-14T14:31:33.416Z,4.75
2023-05-14T14:37:24.184Z,4.30
2023-05-14T14:43:17.253Z,4.40
2023-05-14T14:48:44.975Z,4.50
2023-05-14T14:53:47.706Z,4.63
2023-05-14T15:00:03.123Z,4.25
2023-05-14T15:12:54.366Z,4.00
2023-05-14T15:31:10.137Z,4.70
2023-05-14T15:36:12.905Z,4.53
2023-05-14T15:47:42.388Z,4.60
2023-05-14T15:59:48.396Z,4.10
2023-05-14T16:04:53.529Z,4.30
2023-05-14T16:10:48.732Z,3.80
2023-05-14T16:16:14.451Z,3.80
2023-05-14T16:21:26.957Z,3.97
2023-05-14T16:26:29.677Z,4.05
2023-05-14T16:31:32.386Z,4.25
2023-05-14T16:36:36.433Z,4.10
2023-05-14T16:41:38.962Z,4.18
2023-05-14T16:46:57.431Z,4.10
2023-05-14T16:52:01.648Z,4.13
2023-05-14T16:57:22.777Z,3.80
2023-05-14T17:08:32.421Z,4.05
2023-05-14T17:13:41.122Z,4.00
2023-05-14T17:19:20.317Z,4.15
2023-05-14T17:24:24.309Z,3.97
2023-05-14T17:29:27.125Z,3.78
2023-05-14T17:34:29.761Z,3.75
2023-05-14T17:39:33.783Z,3.78
2023-05-14T17:44:37.081Z,4.00
2023-05-14T17:49:39.753Z,3.83
2023-05-14T17:54:43.742Z,3.83
2023-05-14T17:59:46.474Z,3.50
2023-05-14T18:04:49.229Z,4.05
2023-05-14T18:09:53.255Z,3.70
2023-05-14T18:14:56.053Z,3.53
2023-05-14T18:20:00.119Z,3.60
2023-05-14T18:25:04.496Z,3.67
2023-05-14T18:30:08.955Z,3.67
2023-05-14T18:35:12.310Z,3.45
2023-05-14T18:40:18.654Z,3.35
2023-05-14T18:45:23.973Z,3.65
2023-05-14T18:50:26.984Z,3.63
2023-05-14T18:55:31.016Z,3.47
2023-05-14T19:00:33.773Z,3.53
2023-05-14T19:05:36.436Z,3.65
2023-05-14T19:10:40.503Z,3.58
2023-05-14T19:15:43.769Z,3.42
2023-05-14T19:20:47.099Z,3.55
2023-05-14T19:25:52.718Z,3.33
2023-05-14T19:30:57.123Z,3.65
2023-05-14T19:35:59.819Z,3.38
2023-05-14T19:46:24.988Z,3.63
2023-05-14T19:51:27.795Z,3.63
2023-05-14T19:56:32.117Z,3.40
2023-05-14T20:01:35.306Z,3.30
2023-05-14T20:06:38.226Z,3.65
2023-05-14T20:11:42.218Z,3.22
2023-05-14T20:16:45.020Z,3.63
2023-05-14T20:21:47.942Z,3.80
2023-05-14T20:26:52.013Z,3.40
2023-05-14T20:31:54.660Z,3.30
2023-05-14T20:36:57.422Z,3.20
2023-05-14T20:42:01.522Z,3.53
2023-05-14T20:47:04.257Z,3.40
2023-05-14T20:52:07.434Z,3.10
2023-05-14T20:57:12.193Z,3.20
2023-05-14T21:02:14.946Z,3.40
2023-05-14T21:07:17.636Z,3.50
2023-05-14T21:12:21.614Z,3.85
2023-05-14T21:17:24.323Z,3.22
2023-05-14T21:22:27.778Z,3.40
2023-05-14T21:27:31.774Z,3.17
2023-05-14T21:32:34.451Z,3.42
2023-05-14T21:37:39.224Z,3.35
2023-05-14T21:42:43.284Z,3.25
2023-05-14T21:47:46.219Z,3.20
2023-05-14T21:52:48.985Z,3.10
2023-05-14T21:57:53.006Z,3.30
2023-05-14T22:02:55.851Z,3.40
2023-05-14T22:07:58.554Z,3.25
2023-05-14T22:13:02.659Z,3.03
2023-05-14T22:18:06.782Z,3.35
2023-05-14T22:23:09.451Z,3.97
2023-05-14T22:28:13.597Z,4.20
2023-05-14T22:33:16.217Z,4.40
2023-05-14T22:38:19.860Z,4.38
2023-05-14T22:43:24.037Z,4.28
2023-05-14T22:48:26.692Z,4.15
2023-05-14T22:53:29.310Z,3.85
2023-05-14T22:58:33.451Z,3.67
2023-05-14T23:03:36.128Z,3.60
2023-05-14T23:08:38.843Z,3.78
2023-05-14T23:13:42.898Z,3.75
2023-05-14T23:18:45.755Z,3.55
2023-05-14T23:23:48.566Z,3.55
2023-05-14T23:28:52.561Z,3.58
2023-05-14T23:33:55.265Z,3.60
2023-05-14T23:38:58.100Z,3.47
2023-05-14T23:44:02.023Z,3.35
2023-05-14T23:49:04.800Z,3.63
2023-05-14T23:54:07.635Z,3.40
2023-05-14T23:59:12.032Z,3.30
